sensor_id;sensor_type;location;lat;lon;timestamp;P1;durP1;ratioP1;P2;durP2;ratioP2
50128;SDS011;36026;45.478;9.224;2023-02-11T00:00:28;46.03;;;22.75;;
50128;SDS011;36026;45.478;9.224;2023-02-11T00:03:30;48.50;;;22.67;;
50128;SDS011;36026;45.478;9.224;2023-02-11T00:06:32;43.65;;;23.52;;
50128;SDS011;36026;45.478;9.224;2023-02-11T00:09:36;47.92;;;22.42;;
50128;SDS011;36026;45.478;9.224;2023-02-11T00:12:37;45.17;;;22.02;;
50128;SDS011;36026;45.478;9.224;2023-02-11T00:15:40;51.70;;;24.17;;
50128;SDS011;36026;45.478;9.224;2023-02-11T00:18:42;50.25;;;24.85;;
50128;SDS011;36026;45.478;9.224;2023-02-11T00:21:44;48.55;;;24.10;;
50128;SDS011;36026;45.478;9.224;2023-02-11T00:24:46;55.53;;;24.30;;
50128;SDS011;36026;45.478;9.224;2023-02-11T00:27:47;48.15;;;24.13;;
50128;SDS011;36026;45.478;9.224;2023-02-11T00:30:54;50.75;;;25.92;;
50128;SDS011;36026;45.478;9.224;2023-02-11T00:33:56;50.40;;;25.02;;
50128;SDS011;36026;45.478;9.224;2023-02-11T00:36:57;53.83;;;25.65;;
50128;SDS011;36026;45.478;9.224;2023-02-11T00:39:59;55.03;;;26.67;;
50128;SDS011;36026;45.478;9.224;2023-02-11T00:43:02;54.15;;;26.98;;
50128;SDS011;36026;45.478;9.224;2023-02-11T00:46:05;62.28;;;27.33;;
50128;SDS011;36026;45.478;9.224;2023-02-11T00:49:07;54.85;;;28.15;;
50128;SDS011;36026;45.478;9.224;2023-02-11T00:52:09;55.88;;;28.73;;
50128;SDS011;36026;45.478;9.224;2023-02-11T00:55:10;64.70;;;27.80;;
50128;SDS011;36026;45.478;9.224;2023-02-11T00:58:12;62.55;;;28.52;;
50128;SDS011;36026;45.478;9.224;2023-02-11T01:01:15;59.80;;;30.33;;
50128;SDS011;36026;45.478;9.224;2023-02-11T01:04:16;67.35;;;29.30;;
50128;SDS011;36026;45.478;9.224;2023-02-11T01:07:18;63.38;;;28.20;;
50128;SDS011;36026;45.478;9.224;2023-02-11T01:10:20;57.78;;;29.73;;
50128;SDS011;36026;45.478;9.224;2023-02-11T01:13:21;64.93;;;29.85;;
50128;SDS011;36026;45.478;9.224;2023-02-11T01:16:25;60.67;;;31.20;;
50128;SDS011;36026;45.478;9.224;2023-02-11T01:19:26;58.03;;;30.42;;
50128;SDS011;36026;45.478;9.224;2023-02-11T01:22:28;62.33;;;32.63;;
50128;SDS011;36026;45.478;9.224;2023-02-11T01:25:29;66.00;;;33.40;;
50128;SDS011;36026;45.478;9.224;2023-02-11T01:28:31;61.53;;;32.05;;
50128;SDS011;36026;45.478;9.224;2023-02-11T01:31:34;62.60;;;32.38;;
50128;SDS011;36026;45.478;9.224;2023-02-11T01:34:36;65.43;;;33.63;;
50128;SDS011;36026;45.478;9.224;2023-02-11T01:37:38;62.88;;;32.40;;
50128;SDS011;36026;45.478;9.224;2023-02-11T01:40:39;63.42;;;34.13;;
50128;SDS011;36026;45.478;9.224;2023-02-11T01:43:42;64.18;;;33.00;;
50128;SDS011;36026;45.478;9.224;2023-02-11T01:46:46;60.70;;;32.28;;
50128;SDS011;36026;45.478;9.224;2023-02-11T01:49:49;58.72;;;31.10;;
50128;SDS011;36026;45.478;9.224;2023-02-11T01:52:53;63.30;;;30.83;;
50128;SDS011;36026;45.478;9.224;2023-02-11T01:56:16;61.03;;;31.20;;
50128;SDS011;36026;45.478;9.224;2023-02-11T01:59:37;73.18;;;32.80;;
50128;SDS011;36026;45.478;9.224;2023-02-11T02:02:45;66.75;;;30.40;;
50128;SDS011;36026;45.478;9.224;2023-02-11T02:05:50;57.63;;;30.23;;
50128;SDS011;36026;45.478;9.224;2023-02-11T02:08:54;61.37;;;31.77;;
50128;SDS011;36026;45.478;9.224;2023-02-11T02:11:57;65.13;;;32.17;;
50128;SDS011;36026;45.478;9.224;2023-02-11T02:15:22;54.67;;;29.73;;
50128;SDS011;36026;45.478;9.224;2023-02-11T02:18:33;66.65;;;30.17;;
50128;SDS011;36026;45.478;9.224;2023-02-11T02:28:36;55.45;;;29.30;;
50128;SDS011;36026;45.478;9.224;2023-02-11T02:31:56;54.35;;;27.88;;
50128;SDS011;36026;45.478;9.224;2023-02-11T02:35:28;59.85;;;29.25;;
50128;SDS011;36026;45.478;9.224;2023-02-11T02:38:36;54.65;;;28.92;;
50128;SDS011;36026;45.478;9.224;2023-02-11T02:41:40;55.80;;;27.65;;
50128;SDS011;36026;45.478;9.224;2023-02-11T02:44:46;51.90;;;26.75;;
50128;SDS011;36026;45.478;9.224;2023-02-11T02:47:48;50.10;;;26.63;;
50128;SDS011;36026;45.478;9.224;2023-02-11T02:50:51;47.72;;;25.40;;
50128;SDS011;36026;45.478;9.224;2023-02-11T02:53:57;50.58;;;25.70;;
50128;SDS011;36026;45.478;9.224;2023-02-11T02:57:09;52.97;;;25.67;;
50128;SDS011;36026;45.478;9.224;2023-02-11T03:00:21;52.63;;;26.25;;
50128;SDS011;36026;45.478;9.224;2023-02-11T03:03:27;48.95;;;26.58;;
50128;SDS011;36026;45.478;9.224;2023-02-11T03:06:33;56.30;;;25.60;;
50128;SDS011;36026;45.478;9.224;2023-02-11T03:09:39;46.97;;;24.95;;
50128;SDS011;36026;45.478;9.224;2023-02-11T03:12:43;46.15;;;25.10;;
50128;SDS011;36026;45.478;9.224;2023-02-11T03:15:46;47.28;;;26.05;;
50128;SDS011;36026;45.478;9.224;2023-02-11T03:18:52;56.72;;;25.73;;
50128;SDS011;36026;45.478;9.224;2023-02-11T03:21:58;49.38;;;25.25;;
50128;SDS011;36026;45.478;9.224;2023-02-11T03:25:02;49.58;;;25.30;;
50128;SDS011;36026;45.478;9.224;2023-02-11T03:28:06;47.95;;;24.60;;
50128;SDS011;36026;45.478;9.224;2023-02-11T03:31:13;49.95;;;25.65;;
50128;SDS011;36026;45.478;9.224;2023-02-11T03:34:18;49.30;;;25.75;;
50128;SDS011;36026;45.478;9.224;2023-02-11T03:37:26;43.45;;;24.08;;
50128;SDS011;36026;45.478;9.224;2023-02-11T03:40:31;44.40;;;24.55;;
50128;SDS011;36026;45.478;9.224;2023-02-11T03:43:37;53.20;;;26.92;;
50128;SDS011;36026;45.478;9.224;2023-02-11T03:46:43;47.00;;;24.25;;
50128;SDS011;36026;45.478;9.224;2023-02-11T03:49:48;46.72;;;24.52;;
50128;SDS011;36026;45.478;9.224;2023-02-11T03:52:53;51.97;;;26.17;;
50128;SDS011;36026;45.478;9.224;2023-02-11T03:55:56;49.75;;;25.48;;
50128;SDS011;36026;45.478;9.224;2023-02-11T03:59:00;53.53;;;25.60;;
50128;SDS011;36026;45.478;9.224;2023-02-11T04:02:02;50.67;;;25.25;;
50128;SDS011;36026;45.478;9.224;2023-02-11T04:05:04;45.53;;;24.35;;
50128;SDS011;36026;45.478;9.224;2023-02-11T04:08:08;50.15;;;26.77;;
50128;SDS011;36026;45.478;9.224;2023-02-11T04:11:10;50.33;;;25.02;;
50128;SDS011;36026;45.478;9.224;2023-02-11T04:14:11;48.80;;;25.50;;
50128;SDS011;36026;45.478;9.224;2023-02-11T04:17:13;48.88;;;25.35;;
50128;SDS011;36026;45.478;9.224;2023-02-11T04:20:15;51.15;;;25.05;;
50128;SDS011;36026;45.478;9.224;2023-02-11T04:23:18;48.63;;;23.67;;
50128;SDS011;36026;45.478;9.224;2023-02-11T04:26:19;53.35;;;24.38;;
50128;SDS011;36026;45.478;9.224;2023-02-11T04:29:21;50.50;;;25.67;;
50128;SDS011;36026;45.478;9.224;2023-02-11T04:32:23;49.53;;;23.83;;
50128;SDS011;36026;45.478;9.224;2023-02-11T04:35:24;48.75;;;24.98;;
50128;SDS011;36026;45.478;9.224;2023-02-11T04:38:27;46.25;;;23.50;;
50128;SDS011;36026;45.478;9.224;2023-02-11T04:41:29;47.10;;;23.20;;
50128;SDS011;36026;45.478;9.224;2023-02-11T04:44:31;51.22;;;23.75;;
50128;SDS011;36026;45.478;9.224;2023-02-11T04:47:32;49.25;;;24.95;;
50128;SDS011;36026;45.478;9.224;2023-02-11T04:50:35;48.72;;;23.70;;
50128;SDS011;36026;45.478;9.224;2023-02-11T04:53:38;62.55;;;26.77;;
50128;SDS011;36026;45.478;9.224;2023-02-11T04:56:40;49.15;;;23.35;;
50128;SDS011;36026;45.478;9.224;2023-02-11T04:59:41;56.20;;;25.20;;
50128;SDS011;36026;45.478;9.224;2023-02-11T05:02:43;53.90;;;23.23;;
50128;SDS011;36026;45.478;9.224;2023-02-11T05:05:45;45.55;;;24.42;;
50128;SDS011;36026;45.478;9.224;2023-02-11T05:08:48;55.70;;;23.15;;
50128;SDS011;36026;45.478;9.224;2023-02-11T05:11:49;47.50;;;23.35;;
50128;SDS011;36026;45.478;9.224;2023-02-11T05:14:52;43.65;;;23.45;;
50128;SDS011;36026;45.478;9.224;2023-02-11T05:17:54;47.75;;;23.88;;
50128;SDS011;36026;45.478;9.224;2023-02-11T05:20:56;47.42;;;23.58;;
50128;SDS011;36026;45.478;9.224;2023-02-11T05:23:59;48.45;;;24.25;;
50128;SDS011;36026;45.478;9.224;2023-02-11T05:27:01;46.08;;;24.20;;
50128;SDS011;36026;45.478;9.224;2023-02-11T05:30:03;46.22;;;24.10;;
50128;SDS011;36026;45.478;9.224;2023-02-11T05:33:05;45.78;;;23.52;;
50128;SDS011;36026;45.478;9.224;2023-02-11T05:36:08;50.85;;;25.42;;
50128;SDS011;36026;45.478;9.224;2023-02-11T05:39:11;53.78;;;25.67;;
50128;SDS011;36026;45.478;9.224;2023-02-11T05:42:13;49.45;;;25.85;;
50128;SDS011;36026;45.478;9.224;2023-02-11T05:45:15;54.42;;;26.73;;
50128;SDS011;36026;45.478;9.224;2023-02-11T05:48:17;51.45;;;24.52;;
50128;SDS011;36026;45.478;9.224;2023-02-11T05:51:18;49.60;;;24.92;;
50128;SDS011;36026;45.478;9.224;2023-02-11T05:54:21;51.10;;;24.70;;
50128;SDS011;36026;45.478;9.224;2023-02-11T05:57:23;49.78;;;25.05;;
50128;SDS011;36026;45.478;9.224;2023-02-11T06:00:25;46.22;;;23.88;;
50128;SDS011;36026;45.478;9.224;2023-02-11T06:03:26;47.33;;;24.38;;
50128;SDS011;36026;45.478;9.224;2023-02-11T06:06:28;49.50;;;23.75;;
50128;SDS011;36026;45.478;9.224;2023-02-11T06:09:31;45.25;;;22.30;;
50128;SDS011;36026;45.478;9.224;2023-02-11T06:12:33;42.13;;;22.48;;
50128;SDS011;36026;45.478;9.224;2023-02-11T06:15:36;41.63;;;21.17;;
50128;SDS011;36026;45.478;9.224;2023-02-11T06:18:37;43.03;;;21.75;;
50128;SDS011;36026;45.478;9.224;2023-02-11T06:21:39;43.45;;;23.63;;
50128;SDS011;36026;45.478;9.224;2023-02-11T06:24:42;45.47;;;21.35;;
50128;SDS011;36026;45.478;9.224;2023-02-11T06:27:44;44.40;;;23.77;;
50128;SDS011;36026;45.478;9.224;2023-02-11T06:30:46;50.53;;;24.33;;
50128;SDS011;36026;45.478;9.224;2023-02-11T06:33:47;47.88;;;25.48;;
50128;SDS011;36026;45.478;9.224;2023-02-11T06:36:49;48.15;;;24.55;;
50128;SDS011;36026;45.478;9.224;2023-02-11T06:39:52;53.38;;;25.00;;
50128;SDS011;36026;45.478;9.224;2023-02-11T06:42:54;48.88;;;23.38;;
50128;SDS011;36026;45.478;9.224;2023-02-11T06:45:56;49.13;;;23.58;;
50128;SDS011;36026;45.478;9.224;2023-02-11T06:48:57;52.25;;;23.67;;
50128;SDS011;36026;45.478;9.224;2023-02-11T06:51:59;46.47;;;22.75;;
50128;SDS011;36026;45.478;9.224;2023-02-11T06:55:02;47.92;;;22.17;;
50128;SDS011;36026;45.478;9.224;2023-02-11T06:58:04;53.00;;;23.10;;
50128;SDS011;36026;45.478;9.224;2023-02-11T07:01:06;46.30;;;22.85;;
50128;SDS011;36026;45.478;9.224;2023-02-11T07:04:09;48.13;;;22.52;;
50128;SDS011;36026;45.478;9.224;2023-02-11T07:07:11;44.75;;;21.38;;
50128;SDS011;36026;45.478;9.224;2023-02-11T07:10:14;46.08;;;22.60;;
50128;SDS011;36026;45.478;9.224;2023-02-11T07:13:15;46.38;;;22.15;;
50128;SDS011;36026;45.478;9.224;2023-02-11T07:16:17;43.13;;;21.88;;
50128;SDS011;36026;45.478;9.224;2023-02-11T07:19:19;47.25;;;23.77;;
50128;SDS011;36026;45.478;9.224;2023-02-11T07:22:21;43.25;;;21.52;;
50128;SDS011;36026;45.478;9.224;2023-02-11T07:25:24;45.03;;;22.58;;
50128;SDS011;36026;45.478;9.224;2023-02-11T07:28:26;44.90;;;22.63;;
50128;SDS011;36026;45.478;9.224;2023-02-11T07:31:28;40.83;;;20.70;;
50128;SDS011;36026;45.478;9.224;2023-02-11T07:34:30;41.47;;;22.13;;
50128;SDS011;36026;45.478;9.224;2023-02-11T07:37:32;39.95;;;20.23;;
50128;SDS011;36026;45.478;9.224;2023-02-11T07:40:35;43.42;;;22.10;;
50128;SDS011;36026;45.478;9.224;2023-02-11T07:43:37;39.58;;;20.70;;
50128;SDS011;36026;45.478;9.224;2023-02-11T07:46:39;44.72;;;21.90;;
50128;SDS011;36026;45.478;9.224;2023-02-11T07:49:44;41.80;;;20.55;;
50128;SDS011;36026;45.478;9.224;2023-02-11T07:52:46;39.40;;;21.63;;
50128;SDS011;36026;45.478;9.224;2023-02-11T07:55:49;36.60;;;20.35;;
50128;SDS011;36026;45.478;9.224;2023-02-11T07:58:51;39.15;;;21.40;;
50128;SDS011;36026;45.478;9.224;2023-02-11T08:01:53;41.25;;;22.08;;
50128;SDS011;36026;45.478;9.224;2023-02-11T08:04:55;39.58;;;21.85;;
50128;SDS011;36026;45.478;9.224;2023-02-11T08:07:56;38.25;;;21.50;;
50128;SDS011;36026;45.478;9.224;2023-02-11T08:11:00;43.03;;;21.02;;
50128;SDS011;36026;45.478;9.224;2023-02-11T08:14:07;38.03;;;19.92;;
50128;SDS011;36026;45.478;9.224;2023-02-11T08:17:09;37.03;;;20.65;;
50128;SDS011;36026;45.478;9.224;2023-02-11T08:20:10;39.00;;;20.20;;
50128;SDS011;36026;45.478;9.224;2023-02-11T08:23:12;35.40;;;20.15;;
50128;SDS011;36026;45.478;9.224;2023-02-11T08:26:16;38.25;;;20.98;;
50128;SDS011;36026;45.478;9.224;2023-02-11T08:29:19;41.97;;;21.00;;
50128;SDS011;36026;45.478;9.224;2023-02-11T08:32:21;35.63;;;19.98;;
50128;SDS011;36026;45.478;9.224;2023-02-11T08:35:24;39.00;;;21.23;;
50128;SDS011;36026;45.478;9.224;2023-02-11T08:38:26;34.70;;;19.92;;
50128;SDS011;36026;45.478;9.224;2023-02-11T08:41:29;40.47;;;20.35;;
50128;SDS011;36026;45.478;9.224;2023-02-11T08:44:31;38.13;;;20.00;;
50128;SDS011;36026;45.478;9.224;2023-02-11T08:47:32;33.10;;;19.63;;
50128;SDS011;36026;45.478;9.224;2023-02-11T08:50:34;36.95;;;18.73;;
50128;SDS011;36026;45.478;9.224;2023-02-11T08:53:38;38.15;;;20.55;;
50128;SDS011;36026;45.478;9.224;2023-02-11T08:56:42;33.95;;;19.08;;
50128;SDS011;36026;45.478;9.224;2023-02-11T08:59:43;36.83;;;19.95;;
50128;SDS011;36026;45.478;9.224;2023-02-11T09:02:46;33.80;;;19.75;;
50128;SDS011;36026;45.478;9.224;2023-02-11T09:05:49;35.33;;;18.88;;
50128;SDS011;36026;45.478;9.224;2023-02-11T09:08:52;36.58;;;22.35;;
50128;SDS011;36026;45.478;9.224;2023-02-11T09:11:57;36.47;;;21.50;;
50128;SDS011;36026;45.478;9.224;2023-02-11T09:15:00;39.17;;;23.48;;
50128;SDS011;36026;45.478;9.224;2023-02-11T09:18:02;38.40;;;20.75;;
50128;SDS011;36026;45.478;9.224;2023-02-11T09:21:06;33.97;;;20.08;;
50128;SDS011;36026;45.478;9.224;2023-02-11T09:24:08;33.30;;;19.90;;
50128;SDS011;36026;45.478;9.224;2023-02-11T09:27:12;29.83;;;17.33;;
50128;SDS011;36026;45.478;9.224;2023-02-11T09:30:14;29.85;;;17.75;;
50128;SDS011;36026;45.478;9.224;2023-02-11T09:33:15;30.02;;;18.55;;
50128;SDS011;36026;45.478;9.224;2023-02-11T09:36:18;31.15;;;18.75;;
50128;SDS011;36026;45.478;9.224;2023-02-11T09:39:20;31.90;;;18.60;;
50128;SDS011;36026;45.478;9.224;2023-02-11T09:45:47;30.83;;;18.42;;
50128;SDS011;36026;45.478;9.224;2023-02-11T09:48:51;30.52;;;19.13;;
50128;SDS011;36026;45.478;9.224;2023-02-11T09:51:55;34.60;;;20.60;;
50128;SDS011;36026;45.478;9.224;2023-02-11T09:54:59;34.95;;;20.83;;
50128;SDS011;36026;45.478;9.224;2023-02-11T10:01:13;34.40;;;19.52;;
50128;SDS011;36026;45.478;9.224;2023-02-11T10:04:34;38.03;;;21.50;;
50128;SDS011;36026;45.478;9.224;2023-02-11T10:07:47;33.10;;;19.45;;
50128;SDS011;36026;45.478;9.224;2023-02-11T10:10:52;29.10;;;18.17;;
50128;SDS011;36026;45.478;9.224;2023-02-11T10:14:03;35.33;;;18.73;;
50128;SDS011;36026;45.478;9.224;2023-02-11T10:17:13;32.40;;;18.97;;
50128;SDS011;36026;45.478;9.224;2023-02-11T10:20:23;30.70;;;17.42;;
50128;SDS011;36026;45.478;9.224;2023-02-11T10:23:28;35.45;;;19.70;;
50128;SDS011;36026;45.478;9.224;2023-02-11T10:26:33;29.15;;;16.95;;
50128;SDS011;36026;45.478;9.224;2023-02-11T10:29:39;31.20;;;16.80;;
50128;SDS011;36026;45.478;9.224;2023-02-11T10:32:44;27.58;;;17.75;;
50128;SDS011;36026;45.478;9.224;2023-02-11T10:35:48;23.88;;;15.75;;
50128;SDS011;36026;45.478;9.224;2023-02-11T10:38:50;29.23;;;17.20;;
50128;SDS011;36026;45.478;9.224;2023-02-11T10:41:53;25.27;;;16.40;;
50128;SDS011;36026;45.478;9.224;2023-02-11T10:44:59;29.65;;;16.80;;
50128;SDS011;36026;45.478;9.224;2023-02-11T10:48:03;26.90;;;16.10;;
50128;SDS011;36026;45.478;9.224;2023-02-11T10:51:08;24.08;;;15.13;;
50128;SDS011;36026;45.478;9.224;2023-02-11T10:54:17;25.02;;;15.93;;
50128;SDS011;36026;45.478;9.224;2023-02-11T10:57:20;22.73;;;14.60;;
50128;SDS011;36026;45.478;9.224;2023-02-11T11:00:26;24.45;;;13.85;;
50128;SDS011;36026;45.478;9.224;2023-02-11T11:03:33;24.55;;;13.82;;
50128;SDS011;36026;45.478;9.224;2023-02-11T11:06:38;29.58;;;14.02;;
50128;SDS011;36026;45.478;9.224;2023-02-11T11:09:42;24.85;;;15.43;;
50128;SDS011;36026;45.478;9.224;2023-02-11T11:12:47;21.95;;;13.70;;
50128;SDS011;36026;45.478;9.224;2023-02-11T11:15:52;21.73;;;13.02;;
50128;SDS011;36026;45.478;9.224;2023-02-11T11:19:18;23.02;;;13.60;;
50128;SDS011;36026;45.478;9.224;2023-02-11T11:22:21;23.83;;;13.68;;
50128;SDS011;36026;45.478;9.224;2023-02-11T11:25:24;23.65;;;14.70;;
50128;SDS011;36026;45.478;9.224;2023-02-11T11:28:28;24.58;;;13.90;;
50128;SDS011;36026;45.478;9.224;2023-02-11T11:31:35;25.63;;;15.00;;
50128;SDS011;36026;45.478;9.224;2023-02-11T11:34:50;27.27;;;15.95;;
50128;SDS011;36026;45.478;9.224;2023-02-11T11:37:53;25.05;;;15.25;;
50128;SDS011;36026;45.478;9.224;2023-02-11T11:41:12;23.23;;;13.93;;
50128;SDS011;36026;45.478;9.224;2023-02-11T11:44:18;25.80;;;14.95;;
50128;SDS011;36026;45.478;9.224;2023-02-11T11:47:27;24.65;;;14.35;;
50128;SDS011;36026;45.478;9.224;2023-02-11T11:50:33;27.27;;;16.10;;
50128;SDS011;36026;45.478;9.224;2023-02-11T11:53:36;23.65;;;15.10;;
50128;SDS011;36026;45.478;9.224;2023-02-11T11:56:44;24.45;;;15.75;;
50128;SDS011;36026;45.478;9.224;2023-02-11T11:59:52;26.40;;;15.40;;
50128;SDS011;36026;45.478;9.224;2023-02-11T12:03:11;24.25;;;15.77;;
50128;SDS011;36026;45.478;9.224;2023-02-11T12:06:40;23.20;;;15.00;;
50128;SDS011;36026;45.478;9.224;2023-02-11T12:09:49;25.10;;;15.02;;
50128;SDS011;36026;45.478;9.224;2023-02-11T12:13:03;22.83;;;15.13;;
50128;SDS011;36026;45.478;9.224;2023-02-11T12:16:13;24.83;;;14.52;;
50128;SDS011;36026;45.478;9.224;2023-02-11T12:22:50;25.30;;;16.25;;
50128;SDS011;36026;45.478;9.224;2023-02-11T12:25:59;26.13;;;16.05;;
50128;SDS011;36026;45.478;9.224;2023-02-11T12:29:08;29.80;;;16.15;;
50128;SDS011;36026;45.478;9.224;2023-02-11T12:32:20;26.42;;;16.90;;
50128;SDS011;36026;45.478;9.224;2023-02-11T12:35:29;24.23;;;15.68;;
50128;SDS011;36026;45.478;9.224;2023-02-11T12:38:44;26.08;;;16.15;;
50128;SDS011;36026;45.478;9.224;2023-02-11T12:45:19;22.23;;;14.98;;
50128;SDS011;36026;45.478;9.224;2023-02-11T12:48:33;26.48;;;15.82;;
50128;SDS011;36026;45.478;9.224;2023-02-11T12:51:48;25.15;;;14.85;;
50128;SDS011;36026;45.478;9.224;2023-02-11T12:54:57;25.80;;;16.02;;
50128;SDS011;36026;45.478;9.224;2023-02-11T12:58:00;28.95;;;15.85;;
50128;SDS011;36026;45.478;9.224;2023-02-11T13:01:05;23.38;;;15.13;;
50128;SDS011;36026;45.478;9.224;2023-02-11T13:04:10;25.52;;;16.23;;
50128;SDS011;36026;45.478;9.224;2023-02-11T13:07:20;27.70;;;16.88;;
50128;SDS011;36026;45.478;9.224;2023-02-11T13:10:25;28.35;;;17.45;;
50128;SDS011;36026;45.478;9.224;2023-02-11T13:13:30;27.55;;;17.60;;
50128;SDS011;36026;45.478;9.224;2023-02-11T13:16:34;31.52;;;18.17;;
50128;SDS011;36026;45.478;9.224;2023-02-11T13:19:37;26.30;;;16.30;;
50128;SDS011;36026;45.478;9.224;2023-02-11T13:22:45;27.38;;;16.98;;
50128;SDS011;36026;45.478;9.224;2023-02-11T13:25:52;28.23;;;18.40;;
50128;SDS011;36026;45.478;9.224;2023-02-11T13:28:59;30.23;;;19.48;;
50128;SDS011;36026;45.478;9.224;2023-02-11T13:32:10;27.40;;;18.17;;
50128;SDS011;36026;45.478;9.224;2023-02-11T13:35:25;27.55;;;17.67;;
50128;SDS011;36026;45.478;9.224;2023-02-11T13:38:30;28.83;;;19.08;;
50128;SDS011;36026;45.478;9.224;2023-02-11T13:41:33;26.92;;;19.20;;
50128;SDS011;36026;45.478;9.224;2023-02-11T13:44:35;29.73;;;19.85;;
50128;SDS011;36026;45.478;9.224;2023-02-11T13:47:37;34.22;;;21.45;;
50128;SDS011;36026;45.478;9.224;2023-02-11T13:50:43;30.40;;;20.55;;
50128;SDS011;36026;45.478;9.224;2023-02-11T13:53:49;32.60;;;19.98;;
50128;SDS011;36026;45.478;9.224;2023-02-11T14:00:42;30.83;;;19.83;;
50128;SDS011;36026;45.478;9.224;2023-02-11T14:04:04;32.90;;;20.03;;
50128;SDS011;36026;45.478;9.224;2023-02-11T14:10:51;27.48;;;18.88;;
50128;SDS011;36026;45.478;9.224;2023-02-11T14:14:01;32.20;;;20.33;;
50128;SDS011;36026;45.478;9.224;2023-02-11T14:20:32;25.42;;;18.65;;
50128;SDS011;36026;45.478;9.224;2023-02-11T14:23:36;31.30;;;20.25;;
50128;SDS011;36026;45.478;9.224;2023-02-11T14:26:42;27.77;;;18.90;;
50128;SDS011;36026;45.478;9.224;2023-02-11T14:29:54;30.35;;;20.50;;
50128;SDS011;36026;45.478;9.224;2023-02-11T14:33:12;30.52;;;19.70;;
50128;SDS011;36026;45.478;9.224;2023-02-11T14:36:26;29.73;;;20.42;;
50128;SDS011;36026;45.478;9.224;2023-02-11T14:39:50;29.50;;;20.27;;
50128;SDS011;36026;45.478;9.224;2023-02-11T14:42:59;28.83;;;20.60;;
50128;SDS011;36026;45.478;9.224;2023-02-11T14:46:05;50.05;;;33.80;;
50128;SDS011;36026;45.478;9.224;2023-02-11T14:49:07;62.15;;;38.85;;
50128;SDS011;36026;45.478;9.224;2023-02-11T14:52:20;32.58;;;21.25;;
50128;SDS011;36026;45.478;9.224;2023-02-11T14:55:28;28.05;;;19.30;;
50128;SDS011;36026;45.478;9.224;2023-02-11T14:58:33;28.80;;;20.15;;
50128;SDS011;36026;45.478;9.224;2023-02-11T15:01:38;29.00;;;20.10;;
50128;SDS011;36026;45.478;9.224;2023-02-11T15:04:42;32.20;;;20.52;;
50128;SDS011;36026;45.478;9.224;2023-02-11T15:07:45;27.40;;;19.40;;
50128;SDS011;36026;45.478;9.224;2023-02-11T15:10:48;30.90;;;21.35;;
50128;SDS011;36026;45.478;9.224;2023-02-11T15:13:51;30.08;;;19.83;;
50128;SDS011;36026;45.478;9.224;2023-02-11T15:16:53;29.88;;;19.00;;
50128;SDS011;36026;45.478;9.224;2023-02-11T15:19:58;26.25;;;18.35;;
50128;SDS011;36026;45.478;9.224;2023-02-11T15:26:10;28.13;;;19.38;;
50128;SDS011;36026;45.478;9.224;2023-02-11T15:29:16;30.98;;;19.33;;
50128;SDS011;36026;45.478;9.224;2023-02-11T15:32:18;28.70;;;18.77;;
50128;SDS011;36026;45.478;9.224;2023-02-11T15:35:21;29.55;;;20.08;;
50128;SDS011;36026;45.478;9.224;2023-02-11T15:38:22;27.48;;;18.60;;
50128;SDS011;36026;45.478;9.224;2023-02-11T15:41:32;29.15;;;18.55;;
50128;SDS011;36026;45.478;9.224;2023-02-11T15:44:37;28.45;;;18.98;;
50128;SDS011;36026;45.478;9.224;2023-02-11T15:47:38;26.90;;;18.87;;
50128;SDS011;36026;45.478;9.224;2023-02-11T15:50:41;28.67;;;18.58;;
50128;SDS011;36026;45.478;9.224;2023-02-11T15:53:47;30.67;;;18.80;;
50128;SDS011;36026;45.478;9.224;2023-02-11T15:56:52;29.77;;;19.55;;
50128;SDS011;36026;45.478;9.224;2023-02-11T15:59:56;27.92;;;18.88;;
50128;SDS011;36026;45.478;9.224;2023-02-11T16:03:03;29.20;;;18.75;;
50128;SDS011;36026;45.478;9.224;2023-02-11T16:06:15;33.47;;;19.33;;
50128;SDS011;36026;45.478;9.224;2023-02-11T16:09:22;30.00;;;18.80;;
50128;SDS011;36026;45.478;9.224;2023-02-11T16:12:25;29.42;;;18.48;;
50128;SDS011;36026;45.478;9.224;2023-02-11T16:15:40;27.80;;;17.08;;
50128;SDS011;36026;45.478;9.224;2023-02-11T16:18:50;33.15;;;17.27;;
50128;SDS011;36026;45.478;9.224;2023-02-11T16:21:53;31.35;;;16.90;;
50128;SDS011;36026;45.478;9.224;2023-02-11T16:24:56;27.10;;;16.58;;
50128;SDS011;36026;45.478;9.224;2023-02-11T16:27:58;27.83;;;17.03;;
50128;SDS011;36026;45.478;9.224;2023-02-11T16:31:02;26.25;;;16.25;;
50128;SDS011;36026;45.478;9.224;2023-02-11T16:34:06;28.58;;;17.50;;
50128;SDS011;36026;45.478;9.224;2023-02-11T16:37:12;28.73;;;17.33;;
50128;SDS011;36026;45.478;9.224;2023-02-11T16:40:14;31.70;;;17.05;;
50128;SDS011;36026;45.478;9.224;2023-02-11T16:43:17;29.90;;;16.45;;
50128;SDS011;36026;45.478;9.224;2023-02-11T16:46:21;29.00;;;16.83;;
50128;SDS011;36026;45.478;9.224;2023-02-11T16:49:24;30.85;;;18.33;;
50128;SDS011;36026;45.478;9.224;2023-02-11T16:52:27;33.75;;;18.08;;
50128;SDS011;36026;45.478;9.224;2023-02-11T16:55:30;32.53;;;19.00;;
50128;SDS011;36026;45.478;9.224;2023-02-11T16:58:33;37.03;;;18.80;;
50128;SDS011;36026;45.478;9.224;2023-02-11T17:01:36;27.83;;;17.90;;
50128;SDS011;36026;45.478;9.224;2023-02-11T17:07:40;27.77;;;17.65;;
50128;SDS011;36026;45.478;9.224;2023-02-11T17:10:42;32.90;;;18.63;;
50128;SDS011;36026;45.478;9.224;2023-02-11T17:13:44;33.53;;;18.67;;
50128;SDS011;36026;45.478;9.224;2023-02-11T17:16:47;35.60;;;20.23;;
50128;SDS011;36026;45.478;9.224;2023-02-11T17:19:48;35.50;;;19.52;;
50128;SDS011;36026;45.478;9.224;2023-02-11T17:22:50;33.40;;;18.50;;
50128;SDS011;36026;45.478;9.224;2023-02-11T17:25:55;30.80;;;17.80;;
50128;SDS011;36026;45.478;9.224;2023-02-11T17:28:57;37.25;;;19.63;;
50128;SDS011;36026;45.478;9.224;2023-02-11T17:32:00;39.90;;;20.48;;
50128;SDS011;36026;45.478;9.224;2023-02-11T17:35:01;34.95;;;18.98;;
50128;SDS011;36026;45.478;9.224;2023-02-11T17:38:04;35.55;;;19.00;;
50128;SDS011;36026;45.478;9.224;2023-02-11T17:41:06;40.40;;;20.00;;
50128;SDS011;36026;45.478;9.224;2023-02-11T17:44:09;35.40;;;20.73;;
50128;SDS011;36026;45.478;9.224;2023-02-11T17:47:14;36.17;;;20.65;;
50128;SDS011;36026;45.478;9.224;2023-02-11T17:50:16;37.72;;;20.33;;
50128;SDS011;36026;45.478;9.224;2023-02-11T17:53:18;44.10;;;20.58;;
50128;SDS011;36026;45.478;9.224;2023-02-11T17:56:19;37.10;;;20.63;;
50128;SDS011;36026;45.478;9.224;2023-02-11T17:59:21;38.42;;;21.10;;
50128;SDS011;36026;45.478;9.224;2023-02-11T18:02:25;79.13;;;41.15;;
50128;SDS011;36026;45.478;9.224;2023-02-11T18:05:27;84.60;;;42.05;;
50128;SDS011;36026;45.478;9.224;2023-02-11T18:08:29;156.00;;;76.13;;
50128;SDS011;36026;45.478;9.224;2023-02-11T18:11:31;58.90;;;32.10;;
50128;SDS011;36026;45.478;9.224;2023-02-11T18:14:34;38.65;;;21.58;;
50128;SDS011;36026;45.478;9.224;2023-02-11T18:17:37;43.08;;;22.58;;
50128;SDS011;36026;45.478;9.224;2023-02-11T18:20:39;41.85;;;22.13;;
50128;SDS011;36026;45.478;9.224;2023-02-11T18:23:41;39.65;;;22.05;;
50128;SDS011;36026;45.478;9.224;2023-02-11T18:26:43;36.00;;;20.90;;
50128;SDS011;36026;45.478;9.224;2023-02-11T18:29:45;40.13;;;22.08;;
50128;SDS011;36026;45.478;9.224;2023-02-11T18:32:48;40.40;;;21.75;;
50128;SDS011;36026;45.478;9.224;2023-02-11T18:35:53;40.83;;;22.65;;